Slayton, MN

12:03 PM CST on November 24, 2014 (GMT -0600)
Slayton | Change Station
CLOSE
Current Station
Airport
Location: Slayton,
Elevation: 1624 ft
Nearby Weather Stations
Active Advisory: Wind Advisory

Elev 1624 ft 43.99 °N, 95.78 °W | Updated 7 minutes ago

Overcast
Overcast
19 °F
Feels Like 0 °F
N
31
Wind Variable Wind from NW
Gusts 36 mph

Today
High -- | Low -- °F
--% Chance of Precip.
Yesterday
High -- | Low -- °F
Precip. -- in
7:29 AM 4:49 PM
Waxing Crescent, 6% visible
Pressure 29.61 in
Visibility 7.0 miles
Clouds Mostly Cloudy 1800 ft
Mostly Cloudy 4000 ft
Overcast 8500 ft
Windchill 0 °F
Dew Point 12 °F
Humidity 75%
Rainfall 0.00 in
Snow Depth Not available.
UV 1 out of 12
Pollen .10 out of 12
Air Quality Not available.
Flu Activity Not available.
METAR KDVP 241756Z AUTO 31027G31KT 7SM BKN018 BKN040 OVC085 M07/M11 A2961 RMK AO2 T10731111 11071 21086

More Conditions Fewer Conditions

Pressure 29.61 in
Visibility 7.0 miles
Clouds Mostly Cloudy 1800 ft
Mostly Cloudy 4000 ft
Overcast 8500 ft
Windchill 0 °F
Dew Point 12 °F
Humidity 75%
Rainfall 0.00 in
Snow Depth Not available.
UV 1 out of 12
Pollen .10 out of 12
Air Quality Not available.
Flu Activity Not available.
METAR KDVP 241756Z AUTO 31027G31KT 7SM BKN018 BKN040 OVC085 M07/M11 A2961 RMK AO2 T10731111 11071 21086

More Conditions Fewer Conditions

10-Day Weather Forecast

Almanac

Astronomy

Nov. 24, 2014 Rise Set
Actual Time
Civil Twilight
Nautical Twilight
Astronomical Twilight
Moon
Length of Visible Light
Length of Day
Tomorrow will be .
, % of the Moon is Illuminated

Today's Extremes

State Highs State Lows

Community

WunderPhotos

Upload Photos

1,773,381 photos uploaded!

WunderBlogs® & News

Nearby

Air Quality

  Air Quality AQ Index Pollutant
Not available.

Snow Depth

Station Depth Elevation

Earthquake Activity

City Distance Mag. Time & Date
Minimum magnitude displayed is 2.5.

Coastal Water Temperatures

Place Temperature

Nearby Weather Stations